createdAt,value
2019-03-18T00:00:01.556Z,99.90
2019-03-18T00:02:29.245Z,99.90
2019-03-18T00:04:57.094Z,99.90
2019-03-18T00:07:24.729Z,99.90
2019-03-18T00:09:52.372Z,99.90
2019-03-18T00:12:20.266Z,99.90
2019-03-18T00:14:47.823Z,99.90
2019-03-18T00:17:15.363Z,99.90
2019-03-18T00:19:43.173Z,99.90
2019-03-18T00:22:10.985Z,99.90
2019-03-18T00:24:38.573Z,99.90
2019-03-18T00:27:06.097Z,99.90
2019-03-18T00:29:33.616Z,99.90
2019-03-18T00:32:01.134Z,99.90
2019-03-18T00:34:28.775Z,99.90
2019-03-18T00:36:56.283Z,99.90
2019-03-18T00:39:23.954Z,99.90
2019-03-18T00:41:51.454Z,99.90
2019-03-18T00:44:19.116Z,99.90
2019-03-18T00:46:46.743Z,99.90
2019-03-18T00:49:15.029Z,99.90
2019-03-18T00:51:42.695Z,99.90
2019-03-18T00:54:10.269Z,99.90
2019-03-18T00:56:38.442Z,99.90
2019-03-18T00:59:05.992Z,99.90
2019-03-18T01:01:33.847Z,99.90
2019-03-18T01:04:01.678Z,99.90
2019-03-18T01:06:29.276Z,99.90
2019-03-18T01:08:56.800Z,99.90
2019-03-18T01:11:24.351Z,99.90
2019-03-18T01:13:52.030Z,99.90
2019-03-18T01:16:19.592Z,99.90
2019-03-18T01:18:47.460Z,99.90
2019-03-18T01:21:14.891Z,99.90
2019-03-18T01:23:42.437Z,99.90
2019-03-18T01:26:10.058Z,99.90
2019-03-18T01:28:37.619Z,99.90
2019-03-18T01:31:05.186Z,99.90
2019-03-18T01:33:32.748Z,99.90
2019-03-18T01:36:00.372Z,99.90
2019-03-18T01:38:28.231Z,99.90
2019-03-18T01:40:56.085Z,99.90
2019-03-18T01:43:23.642Z,99.90
2019-03-18T01:45:51.206Z,99.90
2019-03-18T01:48:18.764Z,99.90
2019-03-18T01:50:46.327Z,99.90
2019-03-18T01:53:14.019Z,99.90
2019-03-18T01:55:41.562Z,99.90
2019-03-18T01:58:09.106Z,99.90
2019-03-18T02:00:37.401Z,99.90
2019-03-18T02:03:05.053Z,99.90
2019-03-18T02:05:32.604Z,99.90
2019-03-18T02:08:00.741Z,99.90
2019-03-18T02:10:28.272Z,99.90
2019-03-18T02:12:56.081Z,99.90
2019-03-18T02:15:23.569Z,99.90
2019-03-18T02:17:51.106Z,99.90
2019-03-18T02:20:20.010Z,99.90
2019-03-18T02:22:47.794Z,99.90
2019-03-18T02:25:15.448Z,99.90
2019-03-18T02:27:43.489Z,99.90
2019-03-18T02:30:11.206Z,99.90
2019-03-18T02:32:38.877Z,99.90
2019-03-18T02:35:06.529Z,99.90
2019-03-18T02:37:34.367Z,99.90
2019-03-18T02:40:01.928Z,99.90
2019-03-18T02:42:29.549Z,99.90
2019-03-18T02:44:57.369Z,99.90
2019-03-18T02:47:24.905Z,99.90
2019-03-18T02:49:52.492Z,99.90
2019-03-18T02:52:20.050Z,99.90
2019-03-18T02:54:47.900Z,99.90
2019-03-18T02:57:15.570Z,99.90
2019-03-18T02:59:43.207Z,99.90
2019-03-18T03:02:10.781Z,99.90
2019-03-18T03:04:38.379Z,99.90
2019-03-18T03:07:06.158Z,99.90
2019-03-18T03:09:33.672Z,99.90
2019-03-18T03:12:01.181Z,99.90
2019-03-18T03:14:28.970Z,99.90
2019-03-18T03:16:56.555Z,99.90
2019-03-18T03:19:24.095Z,99.90
2019-03-18T03:21:51.722Z,99.90
2019-03-18T03:24:19.853Z,99.90
2019-03-18T03:26:47.362Z,99.90
2019-03-18T03:29:15.077Z,99.90
2019-03-18T03:31:42.622Z,99.90
2019-03-18T03:34:13.460Z,99.90
2019-03-18T03:36:39.624Z,99.90
2019-03-18T03:39:07.341Z,99.90
2019-03-18T03:41:34.936Z,99.90
2019-03-18T03:44:02.498Z,99.90
2019-03-18T03:46:42.495Z,99.90
2019-03-18T03:48:59.576Z,99.90
2019-03-18T03:51:27.748Z,99.90
2019-03-18T03:53:55.335Z,99.90
2019-03-18T03:56:22.856Z,99.90
2019-03-18T03:58:50.929Z,99.90
2019-03-18T04:01:18.874Z,99.90
2019-03-18T04:03:46.466Z,99.90
2019-03-18T04:06:14.337Z,99.90
2019-03-18T04:08:41.931Z,99.90
2019-03-18T04:11:09.446Z,99.90
2019-03-18T04:13:37.012Z,99.90
2019-03-18T04:16:04.569Z,99.90
2019-03-18T04:18:32.419Z,99.90
2019-03-18T04:20:59.989Z,99.90
2019-03-18T04:23:27.635Z,99.90
2019-03-18T04:25:55.632Z,99.90
2019-03-18T04:28:23.236Z,99.90
2019-03-18T04:30:50.799Z,99.90
2019-03-18T04:33:18.698Z,99.90
2019-03-18T04:35:46.279Z,99.90
2019-03-18T04:38:13.887Z,99.90
2019-03-18T04:40:41.551Z,99.90
2019-03-18T04:43:09.240Z,99.90
2019-03-18T04:45:36.808Z,99.90
2019-03-18T04:48:04.354Z,99.90
2019-03-18T04:50:32.226Z,99.90
2019-03-18T04:52:59.870Z,99.90
2019-03-18T04:55:27.479Z,99.90
2019-03-18T04:57:55.489Z,99.90
2019-03-18T05:00:23.379Z,99.90
2019-03-18T05:02:50.958Z,99.90
2019-03-18T05:05:19.149Z,99.90
2019-03-18T05:07:46.734Z,99.90
2019-03-18T05:10:14.842Z,99.90
2019-03-18T05:12:42.450Z,99.90
2019-03-18T05:15:10.482Z,99.90
2019-03-18T05:17:38.320Z,99.90
2019-03-18T05:20:06.036Z,99.90
2019-03-18T05:22:33.678Z,99.90
2019-03-18T05:25:01.550Z,99.90
2019-03-18T05:27:29.124Z,99.90
2019-03-18T05:29:56.700Z,99.90
2019-03-18T05:32:24.330Z,99.90
2019-03-18T05:34:51.864Z,99.90
2019-03-18T05:37:19.727Z,99.90
2019-03-18T05:39:47.310Z,99.90
2019-03-18T05:42:15.311Z,99.90
2019-03-18T05:44:43.633Z,99.90
2019-03-18T05:47:11.169Z,99.90
2019-03-18T05:49:38.896Z,99.90
2019-03-18T05:52:06.684Z,99.90
2019-03-18T05:54:34.244Z,99.90
2019-03-18T05:57:01.759Z,99.90
2019-03-18T05:59:29.396Z,99.90
2019-03-18T06:01:57.101Z,99.90
2019-03-18T06:04:25.269Z,99.90
2019-03-18T06:06:53.249Z,99.90
2019-03-18T06:09:21.193Z,99.90
2019-03-18T06:11:48.800Z,99.90
2019-03-18T06:14:16.846Z,99.90
2019-03-18T06:16:44.402Z,99.90
2019-03-18T06:19:12.682Z,99.90
2019-03-18T06:21:40.458Z,99.90
2019-03-18T06:24:07.943Z,99.90
2019-03-18T06:26:35.536Z,99.90
2019-03-18T06:29:03.048Z,99.90
2019-03-18T06:31:30.675Z,99.90
2019-03-18T06:33:58.542Z,99.90
2019-03-18T06:36:26.500Z,99.90
2019-03-18T06:38:54.604Z,99.90
2019-03-18T06:41:22.552Z,99.90
2019-03-18T06:43:50.099Z,99.90
2019-03-18T06:46:18.025Z,99.90
2019-03-18T06:48:45.758Z,99.90
2019-03-18T06:51:13.343Z,99.90
2019-03-18T06:53:41.214Z,99.90
2019-03-18T06:56:08.752Z,99.90
2019-03-18T06:58:36.652Z,99.90
2019-03-18T07:01:04.301Z,99.90
2019-03-18T07:03:32.069Z,99.90
2019-03-18T07:05:59.846Z,99.90
2019-03-18T07:08:27.376Z,99.90
2019-03-18T07:10:55.339Z,99.90
2019-03-18T07:13:23.045Z,99.90
2019-03-18T07:15:50.759Z,99.90
2019-03-18T07:18:19.022Z,99.90
2019-03-18T07:20:46.894Z,99.90
2019-03-18T07:23:14.412Z,99.90
2019-03-18T07:25:42.031Z,99.90
2019-03-18T07:28:09.892Z,99.90
2019-03-18T07:30:38.128Z,99.90
2019-03-18T07:33:05.695Z,99.90
2019-03-18T07:35:33.554Z,99.90
2019-03-18T07:38:01.906Z,99.90
2019-03-18T07:40:30.228Z,99.90
2019-03-18T07:42:58.376Z,99.90
2019-03-18T07:45:26.000Z,99.90
2019-03-18T07:47:53.751Z,99.90
2019-03-18T07:50:21.718Z,99.90
2019-03-18T07:52:49.290Z,99.90
2019-03-18T07:55:17.050Z,99.90
2019-03-18T07:57:44.568Z,99.90
2019-03-18T08:00:12.226Z,99.90
2019-03-18T08:02:39.851Z,99.90
2019-03-18T08:05:08.076Z,99.90
2019-03-18T08:07:35.606Z,99.90
2019-03-18T08:10:03.495Z,99.90
2019-03-18T08:12:31.464Z,99.90
2019-03-18T08:14:59.329Z,99.90
2019-03-18T08:17:26.876Z,99.90
2019-03-18T08:19:55.014Z,99.80
2019-03-18T08:22:22.942Z,99.90
2019-03-18T08:24:50.768Z,99.80
2019-03-18T08:27:18.376Z,99.10
2019-03-18T08:29:46.150Z,99.10
2019-03-18T08:32:14.263Z,98.90
2019-03-18T08:34:42.080Z,98.90
2019-03-18T08:37:09.953Z,98.80
2019-03-18T08:39:37.510Z,99.30
2019-03-18T08:42:05.311Z,99.00
2019-03-18T08:44:32.798Z,98.50
2019-03-18T08:47:00.833Z,98.90
2019-03-18T08:49:29.257Z,98.30
2019-03-18T08:51:56.747Z,98.40
2019-03-18T08:54:24.328Z,98.60
2019-03-18T08:56:51.975Z,98.60
2019-03-18T08:59:19.485Z,98.90
2019-03-18T09:01:47.497Z,98.10
2019-03-18T09:04:15.359Z,97.60
2019-03-18T09:06:42.991Z,98.00
2019-03-18T09:09:10.891Z,97.70
2019-03-18T09:11:38.379Z,97.10
2019-03-18T09:14:05.816Z,97.80
2019-03-18T09:16:33.438Z,97.00
2019-03-18T09:19:08.554Z,96.90
2019-03-18T09:21:31.014Z,96.80
2019-03-18T09:23:58.543Z,96.40
2019-03-18T09:26:26.225Z,97.70
2019-03-18T09:28:54.080Z,96.10
2019-03-18T09:31:22.052Z,97.10
2019-03-18T09:33:49.962Z,96.90
2019-03-18T09:36:17.659Z,96.70
2019-03-18T09:38:45.469Z,97.50
2019-03-18T09:41:13.101Z,97.70
2019-03-18T09:43:40.744Z,97.40
2019-03-18T09:46:08.279Z,97.00
2019-03-18T09:48:35.766Z,97.00
2019-03-18T09:51:03.375Z,96.90
2019-03-18T09:53:31.070Z,96.20
2019-03-18T09:55:58.649Z,96.80
2019-03-18T09:58:26.844Z,96.30
2019-03-18T10:00:55.529Z,96.90
2019-03-18T10:03:23.203Z,97.60
2019-03-18T10:05:50.725Z,97.40
2019-03-18T10:08:18.249Z,96.30
2019-03-18T10:10:46.335Z,96.80
2019-03-18T10:13:13.882Z,95.60
2019-03-18T10:15:41.371Z,95.00
2019-03-18T10:18:08.920Z,95.30
2019-03-18T10:20:36.459Z,95.10
2019-03-18T10:23:04.031Z,95.60
2019-03-18T10:25:31.654Z,95.80
2019-03-18T10:27:59.151Z,96.10
2019-03-18T10:30:26.991Z,96.30
2019-03-18T10:32:54.475Z,95.90
2019-03-18T10:35:21.944Z,95.60
2019-03-18T10:37:49.769Z,96.20
2019-03-18T10:40:17.673Z,97.20
2019-03-18T10:42:45.254Z,95.70
2019-03-18T10:45:13.224Z,96.00
2019-03-18T10:47:41.052Z,96.30
2019-03-18T10:50:09.274Z,96.50
2019-03-18T10:52:37.702Z,96.50
2019-03-18T10:55:06.352Z,97.20
2019-03-18T10:57:34.307Z,95.80
2019-03-18T11:00:02.112Z,95.60
2019-03-18T11:02:29.883Z,96.30
2019-03-18T11:04:57.467Z,95.80
2019-03-18T11:07:25.096Z,96.10
2019-03-18T11:09:52.703Z,97.30
2019-03-18T11:12:20.264Z,97.30
2019-03-18T11:14:48.336Z,96.60
2019-03-18T11:17:15.933Z,96.70
2019-03-18T11:19:43.461Z,98.00
2019-03-18T11:22:11.051Z,97.80
2019-03-18T11:24:38.591Z,97.50
2019-03-18T11:27:06.100Z,95.80
2019-03-18T11:29:34.724Z,97.70
2019-03-18T11:32:02.281Z,97.00
2019-03-18T11:34:29.934Z,93.70
2019-03-18T11:36:57.493Z,94.80
2019-03-18T11:39:25.037Z,95.80
2019-03-18T11:41:52.576Z,93.00
2019-03-18T11:44:20.137Z,93.80
2019-03-18T11:46:48.170Z,95.70
2019-03-18T11:49:15.688Z,95.70
2019-03-18T11:51:43.259Z,93.20
2019-03-18T11:54:10.811Z,94.00
2019-03-18T11:56:38.422Z,93.50
2019-03-18T11:59:06.111Z,94.20
2019-03-18T12:01:33.789Z,92.80
2019-03-18T12:04:01.343Z,93.30
2019-03-18T12:06:28.939Z,92.10
2019-03-18T12:08:56.641Z,93.00
2019-03-18T12:11:24.141Z,92.30
2019-03-18T12:13:51.724Z,92.60
2019-03-18T12:16:19.380Z,92.50
2019-03-18T12:18:47.265Z,95.10
2019-03-18T12:21:16.043Z,94.20
2019-03-18T12:23:43.690Z,94.80
2019-03-18T12:26:11.221Z,96.20
2019-03-18T12:28:38.744Z,97.40
2019-03-18T12:31:06.395Z,97.90
2019-03-18T12:33:34.110Z,98.20
2019-03-18T12:36:01.556Z,98.50
2019-03-18T12:38:29.172Z,98.20
2019-03-18T12:40:56.675Z,97.50
2019-03-18T12:43:24.315Z,96.80
2019-03-18T12:45:52.448Z,98.00
2019-03-18T12:48:20.007Z,99.00
2019-03-18T12:50:55.808Z,98.20
2019-03-18T12:53:16.929Z,99.20
2019-03-18T12:55:44.755Z,99.10
2019-03-18T12:58:12.371Z,99.90
2019-03-18T13:00:39.928Z,99.90
2019-03-18T13:03:07.547Z,99.90
2019-03-18T13:05:35.476Z,99.90
2019-03-18T13:08:03.266Z,99.20
2019-03-18T13:10:30.876Z,99.40
2019-03-18T13:12:58.442Z,97.90
2019-03-18T13:15:25.876Z,96.90
2019-03-18T13:17:53.500Z,95.40
2019-03-18T13:20:21.126Z,96.30
2019-03-18T13:22:48.792Z,94.50
2019-03-18T13:25:16.470Z,95.80
2019-03-18T13:27:44.013Z,93.30
2019-03-18T13:30:15.415Z,92.40
2019-03-18T13:32:42.900Z,92.50
2019-03-18T13:35:10.912Z,90.30
2019-03-18T13:37:38.416Z,90.80
2019-03-18T13:40:07.097Z,89.40
2019-03-18T13:42:36.441Z,84.40
2019-03-18T13:45:05.962Z,85.80
2019-03-18T13:47:34.378Z,87.70
2019-03-18T13:50:02.371Z,86.10
2019-03-18T13:52:30.602Z,89.20
2019-03-18T13:54:58.820Z,82.60
2019-03-18T13:57:27.010Z,83.90
2019-03-18T13:59:56.083Z,83.00
2019-03-18T14:02:24.459Z,84.00
2019-03-18T14:04:52.729Z,83.80
2019-03-18T14:07:22.501Z,77.80
2019-03-18T14:09:50.698Z,74.70
2019-03-18T14:12:18.606Z,79.60
2019-03-18T14:14:46.902Z,81.60
2019-03-18T14:17:15.597Z,84.10
2019-03-18T14:19:43.647Z,81.10
2019-03-18T14:22:11.495Z,84.20
2019-03-18T14:24:39.964Z,83.90
2019-03-18T14:27:08.447Z,80.10
2019-03-18T14:29:36.749Z,78.00
2019-03-18T14:32:05.274Z,80.90
2019-03-18T14:34:33.228Z,83.30
2019-03-18T14:37:01.451Z,82.80
2019-03-18T14:39:29.499Z,83.00
2019-03-18T14:41:57.735Z,80.30
2019-03-18T14:44:25.994Z,75.40
2019-03-18T14:46:54.158Z,78.30
2019-03-18T14:49:22.413Z,78.20
2019-03-18T14:51:50.507Z,76.90
2019-03-18T14:54:18.669Z,82.30
2019-03-18T14:56:47.624Z,87.30
2019-03-18T14:59:15.507Z,90.30
2019-03-18T15:01:43.500Z,90.90
2019-03-18T15:04:12.020Z,91.10
2019-03-18T15:06:40.520Z,89.70
2019-03-18T15:09:08.731Z,88.90
2019-03-18T15:11:36.689Z,87.20
2019-03-18T15:14:04.629Z,84.90
2019-03-18T15:16:32.641Z,82.80
2019-03-18T15:19:00.891Z,84.20
2019-03-18T15:21:28.926Z,84.00
2019-03-18T15:23:57.227Z,82.90
2019-03-18T15:26:25.492Z,80.70
2019-03-18T15:28:53.438Z,79.20
2019-03-18T15:31:21.848Z,77.00
2019-03-18T15:33:50.035Z,74.50
2019-03-18T15:36:17.840Z,73.40
2019-03-18T15:38:45.774Z,74.60
2019-03-18T15:41:14.085Z,77.70
2019-03-18T15:43:42.224Z,77.90
2019-03-18T15:46:10.864Z,76.70
2019-03-18T15:48:39.017Z,78.10
2019-03-18T15:51:07.166Z,80.30
2019-03-18T15:53:35.529Z,82.40
2019-03-18T15:56:03.545Z,80.40
2019-03-18T15:58:31.779Z,81.40
2019-03-18T16:00:59.696Z,80.30
2019-03-18T16:03:28.343Z,79.70
2019-03-18T16:05:56.396Z,81.80
2019-03-18T16:08:24.339Z,83.80
2019-03-18T16:10:52.198Z,85.00
2019-03-18T16:13:19.779Z,86.20
2019-03-18T16:15:47.601Z,88.20
2019-03-18T16:18:15.443Z,88.90
2019-03-18T16:20:43.029Z,90.70
2019-03-18T16:23:10.655Z,91.30
2019-03-18T16:25:38.243Z,91.10
2019-03-18T16:28:05.822Z,90.90
2019-03-18T16:30:33.376Z,91.60
2019-03-18T16:33:00.938Z,91.80
2019-03-18T16:35:28.484Z,91.90
2019-03-18T16:37:56.021Z,90.70
2019-03-18T16:40:23.881Z,91.30
2019-03-18T16:42:51.533Z,91.20
2019-03-18T16:45:19.150Z,92.20
2019-03-18T16:47:47.426Z,92.20
2019-03-18T16:50:15.262Z,91.60
2019-03-18T16:52:42.741Z,92.20
2019-03-18T16:55:11.022Z,92.10
2019-03-18T16:57:38.720Z,91.90
2019-03-18T17:00:08.763Z,92.30
2019-03-18T17:02:36.967Z,92.50
2019-03-18T17:05:04.719Z,93.20
2019-03-18T17:07:32.321Z,93.40
2019-03-18T17:09:59.904Z,93.70
2019-03-18T17:12:27.791Z,93.90
2019-03-18T17:14:55.394Z,93.90
2019-03-18T17:17:23.831Z,94.30
2019-03-18T17:19:51.425Z,94.30
2019-03-18T17:22:19.539Z,94.10
2019-03-18T17:24:49.161Z,94.30
2019-03-18T17:27:16.687Z,94.50
2019-03-18T17:29:44.553Z,94.40
2019-03-18T17:32:12.795Z,94.60
2019-03-18T17:34:40.382Z,94.70
2019-03-18T17:37:08.299Z,95.00
2019-03-18T17:39:35.941Z,95.10
2019-03-18T17:42:03.550Z,95.20
2019-03-18T17:44:31.500Z,95.20
2019-03-18T17:46:59.089Z,95.20
2019-03-18T17:49:27.305Z,95.30
2019-03-18T17:51:54.888Z,95.30
2019-03-18T17:54:22.484Z,95.60
2019-03-18T17:56:50.019Z,95.80
2019-03-18T17:59:17.639Z,95.50
2019-03-18T18:01:45.631Z,95.50
2019-03-18T18:04:13.397Z,95.70
2019-03-18T18:06:41.176Z,95.90
2019-03-18T18:09:08.887Z,96.10
2019-03-18T18:11:36.494Z,96.10
2019-03-18T18:14:04.117Z,96.00
2019-03-18T18:16:32.035Z,95.90
2019-03-18T18:18:59.633Z,96.20
2019-03-18T18:21:27.247Z,96.30
2019-03-18T18:23:55.047Z,96.40
2019-03-18T18:26:22.834Z,96.60
2019-03-18T18:28:50.307Z,96.60
2019-03-18T18:31:18.979Z,96.60
2019-03-18T18:33:46.558Z,96.60
2019-03-18T18:36:14.402Z,96.70
2019-03-18T18:38:42.504Z,96.80
2019-03-18T18:41:10.174Z,97.30
2019-03-18T18:43:37.791Z,97.20
2019-03-18T18:46:05.313Z,97.40
2019-03-18T18:48:33.483Z,97.30
2019-03-18T18:51:00.933Z,97.40
2019-03-18T18:53:28.737Z,97.30
2019-03-18T18:55:56.344Z,97.40
2019-03-18T18:58:23.954Z,97.50
2019-03-18T19:00:51.779Z,97.60
2019-03-18T19:03:19.317Z,97.70
2019-03-18T19:05:46.911Z,97.70
2019-03-18T19:08:14.461Z,97.80
2019-03-18T19:10:42.706Z,97.90
2019-03-18T19:13:10.291Z,97.80
2019-03-18T19:15:37.755Z,97.80
2019-03-18T19:18:05.340Z,97.90
2019-03-18T19:20:33.274Z,97.90
2019-03-18T19:23:01.134Z,98.00
2019-03-18T19:25:29.340Z,98.30
2019-03-18T19:27:56.919Z,98.40
2019-03-18T19:30:24.830Z,98.50
2019-03-18T19:32:53.119Z,98.70
2019-03-18T19:35:21.355Z,98.80
2019-03-18T19:37:49.294Z,99.00
2019-03-18T19:40:16.854Z,98.90
2019-03-18T19:42:44.880Z,99.10
2019-03-18T19:45:12.685Z,99.10
2019-03-18T19:47:40.473Z,99.20
2019-03-18T19:50:10.674Z,99.30
2019-03-18T19:52:38.341Z,99.50
2019-03-18T19:55:06.436Z,99.40
2019-03-18T19:57:34.413Z,99.60
2019-03-18T20:00:02.380Z,99.80
2019-03-18T20:02:29.979Z,99.80
2019-03-18T20:04:57.619Z,99.60
2019-03-18T20:07:25.163Z,99.80
2019-03-18T20:09:52.985Z,99.90
2019-03-18T20:12:20.443Z,99.90
2019-03-18T20:14:48.499Z,99.70
2019-03-18T20:17:16.073Z,99.60
2019-03-18T20:19:43.793Z,99.60
2019-03-18T20:22:11.576Z,99.90
2019-03-18T20:24:39.457Z,99.80
2019-03-18T20:27:07.355Z,99.70
2019-03-18T20:29:35.002Z,99.60
2019-03-18T20:32:02.886Z,99.60
2019-03-18T20:34:30.680Z,99.80
2019-03-18T20:36:58.995Z,99.40
2019-03-18T20:39:26.824Z,99.30
2019-03-18T20:41:54.758Z,99.40
2019-03-18T20:44:23.026Z,99.40
2019-03-18T20:46:50.792Z,99.40
2019-03-18T20:49:18.715Z,99.60
2019-03-18T20:51:46.486Z,99.50
2019-03-18T20:54:14.245Z,99.90
2019-03-18T20:56:41.768Z,99.50
2019-03-18T20:59:09.400Z,99.20
2019-03-18T21:01:37.266Z,99.30
2019-03-18T21:04:04.884Z,99.40
2019-03-18T21:06:32.543Z,99.50
2019-03-18T21:09:00.337Z,99.50
2019-03-18T21:11:28.736Z,99.50
2019-03-18T21:13:57.324Z,99.40
2019-03-18T21:16:25.475Z,99.10
2019-03-18T21:18:53.041Z,99.30
2019-03-18T21:21:20.795Z,99.50
2019-03-18T21:23:48.384Z,99.60
2019-03-18T21:26:16.340Z,99.50
2019-03-18T21:28:44.279Z,99.20
2019-03-18T21:31:12.131Z,99.50
2019-03-18T21:33:39.701Z,99.50
2019-03-18T21:36:07.708Z,99.50
2019-03-18T21:38:35.724Z,99.40
2019-03-18T21:41:03.549Z,99.40
2019-03-18T21:43:31.114Z,99.60
2019-03-18T21:45:59.045Z,99.60
2019-03-18T21:48:26.985Z,99.50
2019-03-18T21:50:54.855Z,99.30
2019-03-18T21:53:23.036Z,99.30
2019-03-18T21:55:51.151Z,99.10
2019-03-18T21:58:19.323Z,99.30
2019-03-18T22:00:47.230Z,99.40
2019-03-18T22:03:14.998Z,99.50
2019-03-18T22:05:43.615Z,99.50
2019-03-18T22:08:11.317Z,99.50
2019-03-18T22:10:38.941Z,99.30
2019-03-18T22:13:07.091Z,99.50
2019-03-18T22:15:34.802Z,99.40
2019-03-18T22:18:02.366Z,99.50
2019-03-18T22:20:30.351Z,99.60
2019-03-18T22:22:57.824Z,99.90
2019-03-18T22:25:26.079Z,99.70
2019-03-18T22:27:55.331Z,99.70
2019-03-18T22:30:23.399Z,99.90
2019-03-18T22:32:50.935Z,99.90
2019-03-18T22:35:18.486Z,99.90
2019-03-18T22:37:46.161Z,99.90
2019-03-18T22:40:13.734Z,99.90
2019-03-18T22:42:41.248Z,99.90
2019-03-18T22:45:09.518Z,99.90
2019-03-18T22:47:37.042Z,99.90
2019-03-18T22:50:05.154Z,99.90
2019-03-18T22:52:32.984Z,99.90
2019-03-18T22:55:00.815Z,99.90
2019-03-18T22:57:28.639Z,99.90
2019-03-18T22:59:56.225Z,99.90
2019-03-18T23:02:24.079Z,99.90
2019-03-18T23:04:51.667Z,99.90
2019-03-18T23:07:19.326Z,99.90
2019-03-18T23:09:47.982Z,99.90
2019-03-18T23:12:15.561Z,99.90
2019-03-18T23:14:43.145Z,99.90
2019-03-18T23:17:10.677Z,99.90
2019-03-18T23:19:38.376Z,99.90
2019-03-18T23:22:06.205Z,99.90
2019-03-18T23:24:33.759Z,99.90
2019-03-18T23:27:01.379Z,99.90
2019-03-18T23:29:29.014Z,99.90
2019-03-18T23:31:57.039Z,99.90
2019-03-18T23:34:24.548Z,99.90
2019-03-18T23:36:52.132Z,99.90
2019-03-18T23:39:19.705Z,99.90
2019-03-18T23:41:47.224Z,99.90
2019-03-18T23:44:15.084Z,99.90
2019-03-18T23:46:42.613Z,99.90
2019-03-18T23:49:10.079Z,99.90
2019-03-18T23:51:37.897Z,99.90
2019-03-18T23:54:05.477Z,99.90
2019-03-18T23:56:33.239Z,99.90
2019-03-18T23:59:00.914Z,99.90
